createdAt,value
2023-05-16T00:00:57.667Z,13.29
2023-05-16T00:03:28.269Z,13.34
2023-05-16T00:05:59.458Z,13.33
2023-05-16T00:08:31.015Z,13.36
2023-05-16T00:11:01.649Z,13.31
2023-05-16T00:13:33.520Z,13.27
2023-05-16T00:16:04.612Z,13.26
2023-05-16T00:18:37.074Z,13.30
2023-05-16T00:21:08.343Z,13.27
2023-05-16T00:23:38.928Z,13.27
2023-05-16T00:26:10.748Z,13.22
2023-05-16T00:28:41.275Z,13.22
2023-05-16T00:31:13.181Z,13.21
2023-05-16T00:33:43.624Z,13.20
2023-05-16T00:36:14.095Z,13.14
2023-05-16T00:38:44.558Z,13.13
2023-05-16T00:41:15.546Z,13.21
2023-05-16T00:43:45.985Z,13.14
2023-05-16T00:46:16.566Z,13.16
2023-05-16T00:48:47.118Z,13.13
2023-05-16T00:51:18.728Z,13.08
2023-05-16T00:53:52.288Z,13.02
2023-05-16T00:56:23.888Z,12.96
2023-05-16T00:58:55.692Z,12.90
2023-05-16T01:01:28.410Z,12.89
2023-05-16T01:04:00.924Z,12.78
2023-05-16T01:06:31.774Z,12.73
2023-05-16T01:09:02.803Z,12.76
2023-05-16T01:11:41.969Z,12.66
2023-05-16T01:14:47.528Z,12.56
2023-05-16T01:17:30.922Z,12.46
2023-05-16T01:20:22.840Z,12.44
2023-05-16T01:23:02.771Z,12.44
2023-05-16T01:25:41.998Z,12.40
2023-05-16T01:28:14.466Z,12.34
2023-05-16T01:30:45.135Z,12.22
2023-05-16T01:33:16.153Z,12.15
2023-05-16T01:36:00.054Z,12.08
2023-05-16T01:38:56.611Z,11.97
2023-05-16T01:41:32.731Z,11.90
2023-05-16T01:44:06.338Z,11.88
2023-05-16T01:46:40.002Z,11.90
2023-05-16T01:49:15.167Z,11.91
2023-05-16T01:51:51.280Z,11.83
2023-05-16T01:54:24.720Z,11.94
2023-05-16T01:56:56.955Z,11.78
2023-05-16T01:59:29.542Z,11.75
2023-05-16T02:02:00.701Z,11.66
2023-05-16T02:04:31.213Z,11.71
2023-05-16T02:07:03.770Z,11.62
2023-05-16T02:09:34.480Z,11.62
2023-05-16T02:12:05.604Z,11.60
2023-05-16T02:14:36.493Z,11.48
2023-05-16T02:17:07.121Z,11.46
2023-05-16T02:19:37.696Z,11.47
2023-05-16T02:22:08.196Z,11.36
2023-05-16T02:24:39.136Z,11.33
2023-05-16T02:27:09.731Z,11.27
2023-05-16T02:29:40.138Z,11.38
2023-05-16T02:32:10.554Z,11.29
2023-05-16T02:34:40.944Z,11.19
2023-05-16T02:37:13.314Z,11.18
2023-05-16T02:39:44.027Z,11.16
2023-05-16T02:42:14.717Z,11.14
2023-05-16T02:44:45.201Z,11.27
2023-05-16T02:47:15.684Z,11.26
2023-05-16T02:49:46.313Z,11.14
2023-05-16T02:52:17.100Z,11.24
2023-05-16T02:55:04.761Z,11.22
2023-05-16T02:57:21.672Z,11.27
2023-05-16T02:59:52.175Z,11.24
2023-05-16T03:02:22.617Z,11.25
2023-05-16T03:04:53.125Z,11.20
2023-05-16T03:07:23.759Z,11.42
2023-05-16T03:09:54.409Z,11.32
2023-05-16T03:12:25.025Z,11.29
2023-05-16T03:14:57.174Z,11.24
2023-05-16T03:17:27.747Z,11.31
2023-05-16T03:19:58.260Z,11.35
2023-05-16T03:22:28.692Z,11.35
2023-05-16T03:24:59.289Z,11.38
2023-05-16T03:27:29.704Z,11.33
2023-05-16T03:30:00.245Z,11.32
2023-05-16T03:32:31.015Z,11.18
2023-05-16T03:35:01.614Z,11.09
2023-05-16T03:37:33.664Z,11.18
2023-05-16T03:40:05.922Z,11.26
2023-05-16T03:42:36.508Z,11.18
2023-05-16T03:45:08.687Z,11.07
2023-05-16T03:47:39.538Z,10.97
2023-05-16T03:50:10.632Z,10.96
2023-05-16T03:52:41.248Z,11.02
2023-05-16T03:55:13.459Z,10.88
2023-05-16T03:57:44.391Z,10.98
2023-05-16T04:00:15.782Z,10.98
2023-05-16T04:02:46.615Z,10.93
2023-05-16T04:05:17.355Z,10.82
2023-05-16T04:07:47.774Z,10.78
2023-05-16T04:10:18.304Z,10.78
2023-05-16T04:12:49.116Z,10.82
2023-05-16T04:15:26.600Z,10.88
2023-05-16T04:17:52.144Z,10.95
2023-05-16T04:20:23.242Z,11.00
2023-05-16T04:22:53.974Z,10.94
2023-05-16T04:25:27.579Z,11.00
2023-05-16T04:27:57.523Z,11.03
2023-05-16T04:30:30.611Z,10.99
2023-05-16T04:33:02.096Z,10.87
2023-05-16T04:35:33.811Z,10.89
2023-05-16T04:38:04.780Z,10.83
2023-05-16T04:40:36.270Z,10.76
2023-05-16T04:43:06.859Z,10.74
2023-05-16T04:45:37.811Z,10.64
2023-05-16T04:48:09.127Z,10.80
2023-05-16T04:50:40.209Z,10.70
2023-05-16T04:53:12.515Z,10.68
2023-05-16T04:55:44.755Z,10.69
2023-05-16T04:58:17.273Z,10.71
2023-05-16T05:00:49.484Z,10.62
2023-05-16T05:03:20.127Z,10.62
2023-05-16T05:05:50.791Z,10.67
2023-05-16T05:08:22.584Z,10.54
2023-05-16T05:10:53.240Z,10.73
2023-05-16T05:13:24.115Z,10.54
2023-05-16T05:15:54.690Z,10.57
2023-05-16T05:18:25.205Z,10.50
2023-05-16T05:20:55.684Z,10.54
2023-05-16T05:23:26.145Z,10.61
2023-05-16T05:25:58.689Z,10.68
2023-05-16T05:28:29.136Z,10.72
2023-05-16T05:31:00.919Z,10.68
2023-05-16T05:33:31.474Z,10.78
2023-05-16T05:36:04.191Z,10.94
2023-05-16T05:38:35.481Z,10.74
2023-05-16T05:41:12.058Z,10.74
2023-05-16T05:43:39.304Z,10.65
2023-05-16T05:46:10.354Z,10.64
2023-05-16T05:48:41.077Z,10.68
2023-05-16T05:51:13.432Z,10.68
2023-05-16T05:53:44.242Z,10.78
2023-05-16T05:56:15.124Z,10.85
2023-05-16T05:58:45.805Z,10.79
2023-05-16T06:01:16.821Z,10.95
2023-05-16T06:03:48.094Z,10.87
2023-05-16T06:06:19.249Z,10.86
2023-05-16T06:08:50.854Z,10.93
2023-05-16T06:11:21.841Z,10.98
2023-05-16T06:13:53.033Z,10.96
2023-05-16T06:16:27.703Z,11.16
2023-05-16T06:18:58.551Z,11.12
2023-05-16T06:21:29.195Z,11.18
2023-05-16T06:24:03.802Z,10.98
2023-05-16T06:26:35.356Z,10.94
2023-05-16T06:29:09.239Z,11.11
2023-05-16T06:31:39.809Z,11.04
2023-05-16T06:34:10.424Z,11.06
2023-05-16T06:36:41.062Z,11.24
2023-05-16T06:39:11.550Z,11.23
2023-05-16T06:41:42.109Z,11.30
2023-05-16T06:44:12.688Z,11.24
2023-05-16T06:46:43.763Z,11.12
2023-05-16T06:49:15.194Z,11.24
2023-05-16T06:51:45.741Z,11.10
2023-05-16T06:54:16.323Z,11.04
2023-05-16T06:56:47.115Z,11.38
2023-05-16T06:59:17.712Z,11.24
2023-05-16T07:01:51.022Z,11.13
2023-05-16T07:04:24.734Z,11.15
2023-05-16T07:07:03.128Z,11.22
2023-05-16T07:09:33.697Z,11.26
2023-05-16T07:12:07.713Z,11.45
2023-05-16T07:14:41.390Z,11.44
2023-05-16T07:17:12.657Z,11.66
2023-05-16T07:19:44.650Z,11.66
2023-05-16T07:22:15.537Z,11.79
2023-05-16T07:24:46.129Z,11.98
2023-05-16T07:27:16.661Z,11.72
2023-05-16T07:29:47.276Z,11.87
2023-05-16T07:32:19.284Z,12.02
2023-05-16T07:34:52.950Z,11.98
2023-05-16T07:37:23.794Z,12.16
2023-05-16T07:39:56.173Z,12.32
2023-05-16T07:42:28.582Z,11.93
2023-05-16T07:44:59.135Z,11.77
2023-05-16T07:47:29.933Z,11.82
2023-05-16T07:50:00.618Z,11.68
2023-05-16T07:52:32.370Z,11.79
2023-05-16T07:55:03.958Z,11.80
2023-05-16T07:57:34.729Z,11.84
2023-05-16T08:00:06.439Z,12.02
2023-05-16T08:02:37.334Z,11.76
2023-05-16T08:05:09.380Z,11.60
2023-05-16T08:07:39.892Z,11.78
2023-05-16T08:10:13.619Z,11.56
2023-05-16T08:12:44.635Z,11.52
2023-05-16T08:15:17.388Z,11.68
2023-05-16T08:17:48.502Z,11.84
2023-05-16T08:20:19.190Z,11.83
2023-05-16T08:22:49.905Z,11.68
2023-05-16T08:25:20.743Z,11.82
2023-05-16T08:27:51.716Z,11.75
2023-05-16T08:30:22.207Z,11.97
2023-05-16T08:32:52.872Z,11.81
2023-05-16T08:35:24.136Z,11.73
2023-05-16T08:37:54.915Z,11.98
2023-05-16T08:40:27.739Z,11.99
2023-05-16T08:43:00.149Z,11.93
2023-05-16T08:45:31.975Z,11.95
2023-05-16T08:48:03.759Z,12.03
2023-05-16T08:50:35.746Z,11.72
2023-05-16T08:53:10.393Z,11.78
2023-05-16T08:55:43.348Z,11.89
2023-05-16T08:58:16.998Z,12.21
2023-05-16T09:00:49.118Z,12.34
2023-05-16T09:03:21.377Z,12.48
2023-05-16T09:05:56.055Z,12.38
2023-05-16T09:08:27.180Z,12.50
2023-05-16T09:10:57.756Z,12.53
2023-05-16T09:13:29.033Z,12.46
2023-05-16T09:16:15.737Z,12.27
2023-05-16T09:18:48.758Z,12.16
2023-05-16T09:21:20.635Z,12.33
2023-05-16T09:23:51.597Z,12.29
2023-05-16T09:26:22.978Z,12.29
2023-05-16T09:28:56.142Z,12.08
2023-05-16T09:31:30.438Z,12.20
2023-05-16T09:34:02.443Z,12.63
2023-05-16T09:36:34.831Z,12.91
2023-05-16T09:39:10.153Z,13.09
2023-05-16T09:41:41.029Z,12.96
2023-05-16T09:44:12.001Z,12.67
2023-05-16T09:46:42.721Z,12.66
2023-05-16T09:49:14.973Z,12.58
2023-05-16T09:51:48.547Z,12.43
2023-05-16T09:54:33.816Z,12.26
2023-05-16T09:57:05.266Z,12.21
2023-05-16T09:59:40.491Z,12.20
2023-05-16T10:02:14.005Z,12.24
2023-05-16T10:04:44.676Z,12.29
2023-05-16T10:07:17.124Z,12.24
2023-05-16T10:09:48.472Z,12.04
2023-05-16T10:12:20.393Z,11.98
2023-05-16T10:14:51.175Z,11.95
2023-05-16T10:17:23.775Z,12.14
2023-05-16T10:19:56.165Z,12.39
2023-05-16T10:22:28.031Z,12.47
2023-05-16T10:25:20.715Z,12.38
2023-05-16T10:27:53.765Z,12.86
2023-05-16T10:30:25.384Z,13.43
2023-05-16T10:32:57.309Z,13.45
2023-05-16T10:35:28.861Z,13.11
2023-05-16T10:38:01.447Z,12.73
2023-05-16T10:40:33.215Z,12.34
2023-05-16T10:43:05.119Z,12.12
2023-05-16T10:45:44.561Z,11.89
2023-05-16T10:48:15.482Z,11.88
2023-05-16T10:50:49.504Z,11.79
2023-05-16T10:53:22.974Z,11.55
2023-05-16T10:56:06.125Z,11.74
2023-05-16T10:58:39.633Z,11.80
2023-05-16T11:01:24.425Z,11.92
2023-05-16T11:04:06.763Z,12.46
2023-05-16T11:06:44.504Z,12.94
2023-05-16T11:09:22.143Z,12.84
2023-05-16T11:12:06.491Z,13.32
2023-05-16T11:14:45.244Z,13.82
2023-05-16T11:17:28.650Z,14.17
2023-05-16T11:20:00.558Z,14.25
2023-05-16T11:22:33.262Z,14.19
2023-05-16T11:25:11.055Z,13.97
2023-05-16T11:27:50.533Z,13.38
2023-05-16T11:30:23.436Z,12.96
2023-05-16T11:32:55.842Z,12.92
2023-05-16T11:35:27.121Z,13.12
2023-05-16T11:37:59.443Z,13.43
2023-05-16T11:40:30.237Z,14.04
2023-05-16T11:43:05.202Z,14.88
2023-05-16T11:45:37.611Z,15.18
2023-05-16T11:48:10.189Z,15.14
2023-05-16T11:50:44.628Z,14.66
2023-05-16T11:53:17.294Z,14.22
2023-05-16T11:55:51.837Z,14.04
2023-05-16T11:58:23.543Z,13.95
2023-05-16T12:00:56.144Z,14.06
2023-05-16T12:03:29.685Z,14.32
2023-05-16T12:06:01.027Z,13.97
2023-05-16T12:08:32.120Z,13.84
2023-05-16T12:11:04.417Z,13.89
2023-05-16T12:13:35.515Z,14.08
2023-05-16T12:16:07.477Z,14.10
2023-05-16T12:18:41.934Z,14.25
2023-05-16T12:21:14.304Z,14.36
2023-05-16T12:23:45.755Z,14.56
2023-05-16T12:26:23.333Z,14.61
2023-05-16T12:29:01.999Z,15.05
2023-05-16T12:31:47.304Z,14.90
2023-05-16T12:34:21.979Z,15.03
2023-05-16T12:36:54.807Z,15.39
2023-05-16T12:39:26.038Z,15.80
2023-05-16T12:41:56.806Z,16.12
2023-05-16T12:44:30.530Z,16.78
2023-05-16T12:47:01.344Z,16.90
2023-05-16T12:49:33.970Z,16.49
2023-05-16T12:52:05.877Z,16.75
2023-05-16T12:54:37.063Z,15.99
2023-05-16T12:57:13.647Z,15.37
2023-05-16T12:59:44.310Z,15.22
2023-05-16T13:02:15.582Z,15.07
2023-05-16T13:04:46.351Z,15.22
2023-05-16T13:07:17.684Z,15.29
2023-05-16T13:09:48.811Z,15.32
2023-05-16T13:12:24.338Z,15.72
2023-05-16T13:14:55.324Z,15.68
2023-05-16T13:17:26.148Z,15.90
2023-05-16T13:19:58.268Z,15.98
2023-05-16T13:22:29.241Z,16.65
2023-05-16T13:25:00.860Z,16.44
2023-05-16T13:27:32.366Z,16.50
2023-05-16T13:30:04.136Z,15.91
2023-05-16T13:32:35.036Z,15.54
2023-05-16T13:35:06.400Z,15.33
2023-05-16T13:37:38.478Z,15.41
2023-05-16T13:40:11.238Z,15.66
2023-05-16T13:42:41.921Z,15.98
2023-05-16T13:45:13.165Z,15.96
2023-05-16T13:47:44.682Z,15.86
2023-05-16T13:50:16.138Z,15.91
2023-05-16T13:52:48.516Z,16.02
2023-05-16T13:55:19.103Z,16.38
2023-05-16T13:57:49.768Z,16.09
2023-05-16T14:02:53.217Z,16.12
2023-05-16T14:05:26.137Z,16.06
2023-05-16T14:07:56.807Z,15.88
2023-05-16T14:10:27.538Z,15.82
2023-05-16T14:12:58.339Z,15.88
2023-05-16T14:15:29.312Z,16.30
2023-05-16T14:18:00.226Z,16.61
2023-05-16T14:20:33.140Z,16.50
2023-05-16T14:23:04.555Z,16.48
2023-05-16T14:25:35.289Z,16.32
2023-05-16T14:28:06.740Z,16.26
2023-05-16T14:30:37.336Z,16.15
2023-05-16T14:33:07.894Z,16.49
2023-05-16T14:35:39.000Z,16.66
2023-05-16T14:38:10.284Z,16.63
2023-05-16T14:40:40.762Z,16.17
2023-05-16T14:43:11.950Z,15.98
2023-05-16T14:45:45.267Z,15.93
2023-05-16T14:48:18.075Z,15.86
2023-05-16T14:50:53.220Z,15.89
2023-05-16T14:53:39.065Z,15.97
2023-05-16T14:56:12.936Z,16.10
2023-05-16T14:58:44.918Z,15.86
2023-05-16T15:01:18.667Z,15.95
2023-05-16T15:03:55.405Z,16.13
2023-05-16T15:06:21.378Z,16.53
2023-05-16T15:08:51.986Z,15.91
2023-05-16T15:11:22.907Z,16.16
2023-05-16T15:13:54.674Z,16.18
2023-05-16T15:16:25.563Z,16.22
2023-05-16T15:19:01.653Z,15.92
2023-05-16T15:21:32.749Z,16.00
2023-05-16T15:24:06.824Z,16.02
2023-05-16T15:26:41.778Z,15.90
2023-05-16T15:29:14.604Z,16.02
2023-05-16T15:31:47.393Z,16.09
2023-05-16T15:34:18.613Z,16.22
2023-05-16T15:36:49.729Z,16.18
2023-05-16T15:39:20.253Z,16.40
2023-05-16T15:42:17.601Z,16.65
2023-05-16T15:44:51.322Z,16.30
2023-05-16T15:47:22.764Z,16.38
2023-05-16T15:49:54.536Z,16.45
2023-05-16T15:52:25.815Z,16.12
2023-05-16T15:54:56.557Z,16.01
2023-05-16T15:57:27.021Z,16.14
2023-05-16T16:00:00.384Z,15.87
2023-05-16T16:02:31.134Z,16.01
2023-05-16T16:05:01.862Z,15.80
2023-05-16T16:07:32.296Z,15.80
2023-05-16T16:10:02.916Z,15.82
2023-05-16T16:12:33.747Z,15.86
2023-05-16T16:15:06.995Z,16.00
2023-05-16T16:17:39.244Z,15.99
2023-05-16T16:20:12.533Z,16.10
2023-05-16T16:22:43.024Z,15.94
2023-05-16T16:25:14.028Z,15.87
2023-05-16T16:27:44.973Z,15.86
2023-05-16T16:30:17.093Z,15.82
2023-05-16T16:32:48.942Z,15.83
2023-05-16T16:35:19.658Z,16.05
2023-05-16T16:38:05.549Z,15.93
2023-05-16T16:40:26.154Z,16.22
2023-05-16T16:42:56.887Z,16.06
2023-05-16T16:45:29.385Z,15.84
2023-05-16T16:48:01.661Z,15.72
2023-05-16T16:50:34.299Z,15.67
2023-05-16T16:53:05.524Z,16.44
2023-05-16T16:55:40.631Z,16.36
2023-05-16T16:58:10.505Z,17.54
2023-05-16T17:00:41.072Z,17.75
2023-05-16T17:03:12.628Z,17.60
2023-05-16T17:05:44.678Z,17.65
2023-05-16T17:08:17.285Z,17.13
2023-05-16T17:10:47.888Z,17.27
2023-05-16T17:13:19.372Z,17.02
2023-05-16T17:15:49.960Z,16.60
2023-05-16T17:18:21.710Z,16.08
2023-05-16T17:20:53.573Z,16.32
2023-05-16T17:23:24.643Z,16.39
2023-05-16T17:25:55.114Z,16.01
2023-05-16T17:28:28.336Z,15.63
2023-05-16T17:31:00.102Z,16.00
2023-05-16T17:33:32.490Z,16.28
2023-05-16T17:36:03.937Z,16.24
2023-05-16T17:38:36.406Z,16.60
2023-05-16T17:41:06.961Z,16.45
2023-05-16T17:43:37.609Z,16.46
2023-05-16T17:46:08.753Z,16.28
2023-05-16T17:48:39.938Z,16.04
2023-05-16T17:51:10.538Z,15.67
2023-05-16T17:53:41.646Z,15.21
2023-05-16T17:56:12.755Z,14.80
2023-05-16T17:58:43.355Z,14.60
2023-05-16T18:01:16.019Z,14.44
2023-05-16T18:03:47.121Z,14.34
2023-05-16T18:06:19.761Z,14.26
2023-05-16T18:08:50.264Z,14.20
2023-05-16T18:11:22.401Z,14.04
2023-05-16T18:13:55.266Z,13.91
2023-05-16T18:16:33.250Z,13.85
2023-05-16T18:19:05.045Z,13.80
2023-05-16T18:21:39.468Z,13.70
2023-05-16T18:24:12.953Z,13.59
2023-05-16T18:26:44.488Z,13.56
2023-05-16T18:29:15.647Z,13.51
2023-05-16T18:31:46.394Z,13.44
2023-05-16T18:34:16.958Z,13.38
2023-05-16T18:36:48.664Z,13.29
2023-05-16T18:39:22.300Z,13.21
2023-05-16T18:41:54.147Z,13.10
2023-05-16T18:44:28.056Z,13.02
2023-05-16T18:46:59.016Z,12.97
2023-05-16T18:49:30.874Z,12.87
2023-05-16T18:52:01.374Z,12.83
2023-05-16T18:54:31.913Z,12.76
2023-05-16T18:57:04.892Z,12.70
2023-05-16T18:59:37.422Z,12.68
2023-05-16T19:02:08.375Z,12.59
2023-05-16T19:04:39.218Z,12.56
2023-05-16T19:07:09.982Z,12.47
2023-05-16T19:09:42.018Z,12.47
2023-05-16T19:12:13.996Z,12.35
2023-05-16T19:14:49.463Z,12.31
2023-05-16T19:17:20.296Z,12.26
2023-05-16T19:19:50.997Z,12.20
2023-05-16T19:22:21.644Z,12.14
2023-05-16T19:24:56.706Z,12.12
2023-05-16T19:27:28.819Z,12.10
2023-05-16T19:29:59.476Z,12.08
2023-05-16T19:32:32.609Z,12.00
2023-05-16T19:35:08.145Z,11.96
2023-05-16T19:37:41.493Z,11.88
2023-05-16T19:40:17.726Z,11.90
2023-05-16T19:42:48.438Z,11.90
2023-05-16T19:45:19.005Z,11.76
2023-05-16T19:47:51.119Z,11.72
2023-05-16T19:50:23.084Z,11.67
2023-05-16T19:52:55.236Z,11.63
2023-05-16T19:55:27.433Z,11.56
2023-05-16T19:58:00.490Z,11.50
2023-05-16T20:00:32.991Z,11.44
2023-05-16T20:03:05.335Z,11.42
2023-05-16T20:05:35.966Z,11.35
2023-05-16T20:08:10.095Z,11.34
2023-05-16T20:10:41.454Z,11.32
2023-05-16T20:13:15.230Z,11.36
2023-05-16T20:15:46.190Z,11.24
2023-05-16T20:18:19.797Z,11.19
2023-05-16T20:20:51.124Z,11.12
2023-05-16T20:23:23.456Z,11.02
2023-05-16T20:25:54.270Z,10.95
2023-05-16T20:28:24.850Z,10.88
2023-05-16T20:30:57.664Z,10.86
2023-05-16T20:33:29.399Z,10.74
2023-05-16T20:36:01.417Z,10.66
2023-05-16T20:38:38.031Z,10.66
2023-05-16T20:41:09.208Z,10.59
2023-05-16T20:43:40.037Z,10.52
2023-05-16T20:46:11.121Z,10.57
2023-05-16T20:48:42.149Z,10.50
2023-05-16T20:51:13.353Z,10.46
2023-05-16T20:53:44.086Z,10.38
2023-05-16T20:56:17.268Z,10.39
2023-05-16T20:58:47.929Z,10.34
2023-05-16T21:01:21.838Z,10.18
2023-05-16T21:03:53.720Z,10.22
2023-05-16T21:06:25.350Z,10.18
2023-05-16T21:08:56.075Z,10.04
2023-05-16T21:11:31.778Z,10.03
2023-05-16T21:14:02.989Z,10.04
2023-05-16T21:16:34.024Z,9.96
2023-05-16T21:19:04.616Z,9.94
2023-05-16T21:21:35.905Z,9.90
2023-05-16T21:24:08.407Z,9.81
2023-05-16T21:26:42.100Z,9.82
2023-05-16T21:29:14.290Z,9.78
2023-05-16T21:31:46.569Z,9.82
2023-05-16T21:34:19.815Z,9.82
2023-05-16T21:36:52.199Z,9.76
2023-05-16T21:39:23.812Z,9.74
2023-05-16T21:41:56.202Z,9.72
2023-05-16T21:44:27.333Z,9.66
2023-05-16T21:47:01.135Z,9.74
2023-05-16T21:49:34.589Z,9.76
2023-05-16T21:52:07.557Z,9.61
2023-05-16T21:54:41.547Z,9.61
2023-05-16T21:57:12.423Z,9.64
2023-05-16T21:59:44.670Z,9.65
2023-05-16T22:02:15.382Z,9.62
2023-05-16T22:04:47.637Z,9.54
2023-05-16T22:07:18.529Z,9.60
2023-05-16T22:09:54.283Z,9.58
2023-05-16T22:12:27.543Z,9.48
2023-05-16T22:15:01.230Z,9.53
2023-05-16T22:17:32.261Z,9.52
2023-05-16T22:20:03.563Z,9.52
2023-05-16T22:22:35.015Z,9.54
2023-05-16T22:25:06.199Z,9.48
2023-05-16T22:27:36.772Z,9.41
2023-05-16T22:30:10.090Z,9.42
2023-05-16T22:32:40.929Z,9.41
2023-05-16T22:35:14.983Z,9.40
2023-05-16T22:37:45.649Z,9.42
2023-05-16T22:40:16.170Z,9.34
2023-05-16T22:42:46.785Z,9.35
2023-05-16T22:45:17.348Z,9.34
2023-05-16T22:47:49.222Z,9.32
2023-05-16T22:50:19.892Z,9.31
2023-05-16T22:52:50.478Z,9.24
2023-05-16T22:55:21.089Z,9.22
2023-05-16T22:57:52.907Z,9.17
2023-05-16T23:00:24.911Z,9.16
2023-05-16T23:02:58.336Z,9.11
2023-05-16T23:05:32.252Z,9.18
2023-05-16T23:08:04.385Z,9.10
2023-05-16T23:10:35.205Z,9.14
2023-05-16T23:13:05.799Z,9.12
2023-05-16T23:15:36.578Z,9.08
2023-05-16T23:18:07.561Z,9.04
2023-05-16T23:20:38.385Z,9.09
2023-05-16T23:23:09.021Z,8.98
2023-05-16T23:25:39.695Z,9.00
2023-05-16T23:28:10.152Z,8.96
2023-05-16T23:30:40.736Z,8.99
2023-05-16T23:33:11.293Z,8.91
2023-05-16T23:35:46.051Z,8.80
2023-05-16T23:38:16.697Z,8.80
2023-05-16T23:40:47.252Z,8.92
2023-05-16T23:43:21.490Z,8.95
2023-05-16T23:45:52.154Z,8.86
2023-05-16T23:48:22.719Z,8.78
2023-05-16T23:50:53.440Z,8.80
2023-05-16T23:53:25.700Z,8.78
2023-05-16T23:55:56.903Z,8.76
2023-05-16T23:58:27.768Z,8.82
